Time;durP1;ratioP1;P1;durP2;ratioP2;P2;SDS_P1;SDS_P2;PMS_P1;PMS_P2;Temp;Humidity;BMP_temperature;BMP_pressure;BME280_temperature;BME280_humidity;BME280_pressure;Samples;Min_cycle;Max_cycle;Signal;HPM_P1;HPM_P2
2022/04/11 00:01:57;;;;;;;8.45;1.00;;;6.20;99.90;;;;;;5028980;28;20516;-62
2022/04/11 00:04:23;;;;;;;4.40;1.48;;;6.20;99.90;;;;;;5029055;28;20033;-62
2022/04/11 00:06:48;;;;;;;3.83;0.95;;;6.20;99.90;;;;;;5029404;28;20103;-61
2022/04/11 00:09:14;;;;;;;4.60;1.08;;;6.30;99.90;;;;;;5029466;28;20039;-62
2022/04/11 00:11:39;;;;;;;12.82;1.83;;;6.30;99.90;;;;;;5027782;28;20125;-61
2022/04/11 00:14:05;;;;;;;5.18;1.08;;;6.30;99.90;;;;;;5029450;28;20553;-63
2022/04/11 00:16:32;;;;;;;3.20;1.33;;;6.30;99.90;;;;;;5028167;28;20129;-62
2022/04/11 00:18:57;;;;;;;4.00;1.23;;;6.30;99.90;;;;;;5029193;28;20040;-62
2022/04/11 00:21:23;;;;;;;7.03;1.00;;;6.30;99.90;;;;;;5027675;28;20030;-62
2022/04/11 00:23:49;;;;;;;4.68;1.05;;;6.20;99.90;;;;;;5029198;28;20120;-61
2022/04/11 00:26:15;;;;;;;3.67;1.10;;;6.20;99.90;;;;;;5028881;28;20041;-61
2022/04/11 00:28:40;;;;;;;5.65;1.27;;;6.20;99.90;;;;;;5027384;28;20033;-63
2022/04/11 00:31:06;;;;;;;4.65;1.40;;;6.20;99.90;;;;;;5028432;28;20128;-63
2022/04/11 00:33:32;;;;;;;6.15;1.52;;;6.20;99.90;;;;;;5028369;28;20029;-61
2022/04/11 00:35:57;;;;;;;2.67;1.38;;;6.10;99.90;;;;;;5028678;28;20041;-62
2022/04/11 00:38:23;;;;;;;3.60;1.08;;;6.20;99.90;;;;;;5028162;28;20057;-61
2022/04/11 00:40:48;;;;;;;4.72;1.20;;;6.20;99.90;;;;;;5027682;28;20106;-61
2022/04/11 00:43:33;;;;;;;3.78;1.30;;;6.20;99.90;;;;;;5028691;28;20033;-61
2022/04/11 00:45:59;;;;;;;4.53;1.38;;;6.20;99.90;;;;;;5025367;28;20164;-62
2022/04/11 00:48:25;;;;;;;5.75;1.50;;;6.20;99.90;;;;;;5028304;28;20113;-62
2022/04/11 00:50:54;;;;;;;4.10;1.50;;;6.20;99.90;;;;;;5027754;28;20034;-62
2022/04/11 00:53:20;;;;;;;7.32;1.85;;;6.20;99.90;;;;;;5028327;28;20059;-63
2022/04/11 00:55:46;;;;;;;6.25;2.28;;;6.20;99.90;;;;;;5026228;28;20497;-61
2022/04/11 00:58:13;;;;;;;4.15;2.00;;;6.20;99.90;;;;;;5028598;28;20037;-61
2022/04/11 01:00:40;;;;;;;7.00;1.80;;;6.20;99.90;;;;;;5026036;28;20501;-61
2022/04/11 01:03:06;;;;;;;5.22;1.70;;;6.10;99.90;;;;;;5028315;28;20044;-61
2022/04/11 01:05:32;;;;;;;8.02;2.25;;;6.10;99.90;;;;;;5027435;28;20037;-61
2022/04/11 01:08:06;;;;;;;5.38;1.90;;;6.10;99.90;;;;;;5028219;28;20092;-62
2022/04/11 01:10:31;;;;;;;4.55;1.70;;;6.10;99.90;;;;;;5026601;28;20030;-61
2022/04/11 01:12:57;;;;;;;5.45;2.10;;;6.10;99.90;;;;;;5028124;28;20390;-62
2022/04/11 01:15:23;;;;;;;6.30;2.22;;;6.00;99.90;;;;;;5026996;28;20045;-62
2022/04/11 01:17:48;;;;;;;4.43;1.95;;;6.00;99.90;;;;;;5028244;28;20028;-61
2022/04/11 01:20:16;;;;;;;3.75;2.08;;;5.90;99.90;;;;;;5027170;28;20034;-61
2022/04/11 01:22:43;;;;;;;10.77;2.72;;;5.90;99.90;;;;;;5027540;28;20037;-61
2022/04/11 01:25:10;;;;;;;4.13;1.60;;;5.90;99.90;;;;;;5027926;28;20045;-61
2022/04/11 01:27:37;;;;;;;6.53;2.00;;;5.90;99.90;;;;;;5027385;28;20032;-62
2022/04/11 01:30:03;;;;;;;5.32;2.25;;;5.90;99.90;;;;;;5026985;28;20432;-61
2022/04/11 01:32:29;;;;;;;4.10;2.33;;;5.80;99.90;;;;;;5027256;28;20060;-63
2022/04/11 01:34:56;;;;;;;3.63;1.88;;;5.80;99.90;;;;;;5027358;28;20398;-62
2022/04/11 01:37:21;;;;;;;6.80;2.15;;;5.80;99.90;;;;;;5027559;28;20037;-64
2022/04/11 01:39:47;;;;;;;6.43;2.40;;;5.80;99.90;;;;;;5026703;28;20512;-62
2022/04/11 01:42:12;;;;;;;5.97;1.58;;;5.70;99.90;;;;;;5027051;28;20037;-63
2022/04/11 01:44:38;;;;;;;7.50;2.17;;;5.70;99.90;;;;;;5027312;28;20041;-62
2022/04/11 01:47:04;;;;;;;4.78;1.70;;;5.70;99.90;;;;;;5027201;28;20478;-62
2022/04/11 01:49:29;;;;;;;5.80;2.20;;;5.70;99.90;;;;;;5026917;28;20486;-62
2022/04/11 01:51:55;;;;;;;5.88;2.10;;;5.70;99.90;;;;;;5026805;28;20065;-60
2022/04/11 01:54:21;;;;;;;3.80;1.88;;;5.80;99.90;;;;;;5027410;28;20060;-60
2022/04/11 01:56:46;;;;;;;8.75;3.00;;;5.90;99.90;;;;;;5026832;28;20041;-61
2022/04/11 01:59:14;;;;;;;7.28;2.00;;;5.90;99.90;;;;;;5027453;28;20029;-61
2022/04/11 02:01:40;;;;;;;5.65;2.10;;;5.90;99.90;;;;;;5025934;28;20048;-60
2022/04/11 02:04:06;;;;;;;4.78;1.92;;;6.00;99.90;;;;;;5027201;28;20413;-61
2022/04/11 02:06:31;;;;;;;5.45;1.95;;;5.90;99.90;;;;;;5026477;28;20843;-61
2022/04/11 02:08:57;;;;;;;5.78;2.30;;;6.00;99.90;;;;;;5027545;28;20033;-61
2022/04/11 02:11:22;;;;;;;3.53;1.92;;;5.90;99.90;;;;;;5025764;28;20046;-63
2022/04/11 02:13:48;;;;;;;7.45;2.30;;;5.90;99.90;;;;;;5027713;28;20050;-61
2022/04/11 02:16:14;;;;;;;5.78;1.92;;;5.90;99.90;;;;;;5027043;28;20038;-61
2022/04/11 02:18:39;;;;;;;8.30;2.30;;;5.80;99.90;;;;;;5026616;28;20160;-61
2022/04/11 02:21:05;;;;;;;5.45;2.17;;;5.80;99.90;;;;;;5026490;28;20115;-61
2022/04/11 02:23:30;;;;;;;5.85;2.33;;;5.80;99.90;;;;;;5026551;28;20599;-61
2022/04/11 02:25:56;;;;;;;6.57;2.22;;;5.70;99.90;;;;;;5027075;28;20183;-61
2022/04/11 02:28:22;;;;;;;9.85;2.33;;;5.70;99.90;;;;;;5026920;28;20037;-62
2022/04/11 02:30:47;;;;;;;4.68;1.92;;;5.70;99.90;;;;;;5026181;28;20052;-61
2022/04/11 02:33:13;;;;;;;6.95;3.10;;;5.70;99.90;;;;;;5026672;28;20044;-62
2022/04/11 02:35:40;;;;;;;3.72;1.92;;;5.70;99.90;;;;;;5026572;28;20041;-61
2022/04/11 02:38:06;;;;;;;6.65;2.33;;;5.70;99.90;;;;;;5023391;28;20133;-64
2022/04/11 02:40:32;;;;;;;8.13;2.67;;;5.70;99.90;;;;;;5024887;28;20692;-63
2022/04/11 02:42:57;;;;;;;5.40;2.67;;;5.60;99.90;;;;;;5026939;28;20025;-62
2022/04/11 02:45:23;;;;;;;6.15;2.33;;;5.50;99.90;;;;;;5026685;28;20033;-63
2022/04/11 02:47:49;;;;;;;5.03;2.20;;;5.50;99.90;;;;;;5026876;28;20044;-62
2022/04/11 02:50:14;;;;;;;5.40;2.55;;;5.50;99.90;;;;;;5026213;28;20073;-62
2022/04/11 02:52:40;;;;;;;6.57;2.22;;;5.40;99.90;;;;;;5026465;28;20038;-61
2022/04/11 02:55:06;;;;;;;8.05;2.30;;;5.40;99.90;;;;;;5027123;28;20465;-61
2022/04/11 02:57:32;;;;;;;9.00;2.47;;;5.40;99.90;;;;;;5026195;28;20045;-62
2022/04/11 02:59:58;;;;;;;4.65;1.95;;;5.40;99.90;;;;;;5026059;28;20048;-60
2022/04/11 03:02:24;;;;;;;6.38;3.05;;;5.40;99.90;;;;;;5022600;28;20038;-61
2022/04/11 03:04:50;;;;;;;6.80;3.08;;;5.40;99.90;;;;;;5026719;28;20084;-61
2022/04/11 03:07:15;;;;;;;7.53;2.53;;;5.30;99.90;;;;;;5026825;28;20037;-61
2022/04/11 03:09:41;;;;;;;5.78;1.92;;;5.30;99.90;;;;;;5026125;28;20039;-62
2022/04/11 03:12:08;;;;;;;5.32;2.47;;;5.30;99.90;;;;;;5026313;28;20120;-61
2022/04/11 03:14:33;;;;;;;9.18;2.63;;;5.30;99.90;;;;;;5022353;28;20029;-61
2022/04/11 03:16:59;;;;;;;7.13;2.58;;;5.20;99.90;;;;;;5026126;28;20132;-61
2022/04/11 03:19:25;;;;;;;4.88;2.08;;;5.20;99.90;;;;;;5026218;28;20057;-62
2022/04/11 03:21:51;;;;;;;7.60;2.65;;;5.20;99.90;;;;;;5025856;28;20022;-63
2022/04/11 03:24:17;;;;;;;7.75;2.58;;;5.10;99.90;;;;;;5028856;28;20048;-62
2022/04/11 03:26:42;;;;;;;5.18;2.60;;;5.10;99.90;;;;;;5029757;28;20041;-62
2022/04/11 03:29:08;;;;;;;6.70;2.55;;;5.00;99.90;;;;;;5029972;28;20128;-61
2022/04/11 03:31:33;;;;;;;4.60;2.63;;;5.00;99.90;;;;;;5028661;28;20025;-60
2022/04/11 03:33:59;;;;;;;9.23;2.35;;;5.10;99.90;;;;;;5030035;28;20057;-63
2022/04/11 03:36:25;;;;;;;4.82;2.40;;;5.10;99.90;;;;;;5029662;28;20099;-61
2022/04/11 03:38:51;;;;;;;10.80;4.07;;;5.10;99.90;;;;;;5029787;28;20041;-61
2022/04/11 03:41:17;;;;;;;4.63;3.22;;;5.10;99.90;;;;;;5028409;28;20040;-61
2022/04/11 03:43:43;;;;;;;6.75;2.00;;;5.10;99.90;;;;;;5029291;28;20046;-61
2022/04/11 03:46:08;;;;;;;5.78;3.03;;;5.10;99.90;;;;;;5029579;28;20332;-61
2022/04/11 03:48:34;;;;;;;3.85;2.47;;;5.00;99.90;;;;;;5029540;28;20038;-62
2022/04/11 03:51:00;;;;;;;8.82;2.25;;;5.00;99.90;;;;;;5029111;28;20043;-63
2022/04/11 03:53:25;;;;;;;9.55;2.72;;;5.00;99.90;;;;;;5029256;28;20724;-61
2022/04/11 03:55:51;;;;;;;8.63;2.47;;;5.00;99.90;;;;;;5029428;28;20045;-63
2022/04/11 03:58:17;;;;;;;5.57;2.53;;;5.00;99.90;;;;;;5029465;28;20490;-61
2022/04/11 04:00:42;;;;;;;8.18;2.78;;;4.90;99.90;;;;;;5028241;28;20117;-61
2022/04/11 04:03:12;;;;;;;8.77;2.75;;;5.00;99.90;;;;;;5028198;28;20037;-63
2022/04/11 04:05:46;;;;;;;7.03;2.83;;;5.00;99.90;;;;;;5029188;28;20065;-62
2022/04/11 04:08:12;;;;;;;8.07;3.10;;;5.00;99.90;;;;;;5029213;28;20572;-61
2022/04/11 04:10:38;;;;;;;5.07;3.13;;;5.00;99.90;;;;;;5028555;28;20846;-63
2022/04/11 04:13:04;;;;;;;7.07;2.70;;;5.10;99.90;;;;;;5029338;28;20065;-62
2022/04/11 04:15:30;;;;;;;6.70;2.65;;;5.10;99.90;;;;;;5028317;28;20037;-62
2022/04/11 04:17:56;;;;;;;12.77;2.65;;;5.10;99.90;;;;;;5029487;28;20026;-62
2022/04/11 04:20:25;;;;;;;6.13;2.60;;;5.10;99.90;;;;;;5028402;28;20037;-61
2022/04/11 04:22:55;;;;;;;14.73;3.85;;;5.10;99.90;;;;;;5028969;28;20030;-61
2022/04/11 04:25:20;;;;;;;5.32;2.67;;;5.10;99.90;;;;;;5028705;28;20044;-62
2022/04/11 04:27:46;;;;;;;7.95;2.83;;;5.10;99.90;;;;;;5028728;28;20033;-61
2022/04/11 04:30:12;;;;;;;8.98;3.00;;;5.20;99.90;;;;;;5027771;28;20496;-62
2022/04/11 04:32:38;;;;;;;6.32;2.55;;;5.20;99.90;;;;;;5027495;28;20036;-61
2022/04/11 04:35:05;;;;;;;8.10;3.25;;;5.20;99.90;;;;;;5028223;28;20049;-61
2022/04/11 04:37:31;;;;;;;7.85;3.20;;;5.30;99.90;;;;;;5028263;28;20128;-61
2022/04/11 04:39:57;;;;;;;10.30;3.55;;;5.30;99.90;;;;;;5026347;28;20113;-62
2022/04/11 04:42:23;;;;;;;15.93;3.30;;;5.30;99.90;;;;;;5026680;28;20095;-64
2022/04/11 04:44:49;;;;;;;6.40;3.47;;;5.30;99.90;;;;;;5026925;28;20080;-60
2022/04/11 04:47:18;;;;;;;6.93;2.70;;;5.30;99.90;;;;;;5028293;28;20120;-61
2022/04/11 04:49:45;;;;;;;5.72;2.83;;;5.30;99.90;;;;;;5026229;28;20033;-62
2022/04/11 04:52:11;;;;;;;13.30;3.55;;;5.30;99.90;;;;;;5026660;28;20041;-60
2022/04/11 04:54:37;;;;;;;6.88;3.05;;;5.40;99.90;;;;;;5028311;28;20117;-62
2022/04/11 04:57:03;;;;;;;16.45;3.28;;;5.30;99.90;;;;;;5019094;28;20045;-62
2022/04/11 04:59:29;;;;;;;9.38;3.58;;;5.30;99.90;;;;;;5024116;28;20087;-62
2022/04/11 05:01:55;;;;;;;7.18;3.38;;;5.30;99.90;;;;;;5024527;28;20037;-61
2022/04/11 05:04:21;;;;;;;7.00;3.53;;;5.30;99.90;;;;;;5025789;28;20045;-61
2022/04/11 05:06:47;;;;;;;8.75;3.45;;;5.20;99.90;;;;;;5024774;28;20120;-63
2022/04/11 05:09:12;;;;;;;11.15;3.67;;;5.20;99.90;;;;;;5025024;28;20465;-61
2022/04/11 05:11:38;;;;;;;7.85;2.97;;;5.20;99.90;;;;;;5023548;28;20119;-62
2022/04/11 05:14:03;;;;;;;5.72;3.10;;;5.20;99.90;;;;;;5029054;28;20040;-61
2022/04/11 05:16:29;;;;;;;8.52;4.03;;;5.20;99.90;;;;;;5024811;28;20042;-61
2022/04/11 05:18:54;;;;;;;7.78;3.58;;;5.10;99.90;;;;;;5025706;28;20035;-61
2022/04/11 05:21:21;;;;;;;9.48;3.30;;;5.10;99.90;;;;;;5023989;28;20041;-62
2022/04/11 05:23:47;;;;;;;6.53;3.38;;;5.10;99.90;;;;;;5025158;28;20029;-62
2022/04/11 05:26:13;;;;;;;18.70;4.75;;;5.00;99.90;;;;;;5024384;28;20512;-62
2022/04/11 05:28:38;;;;;;;8.13;3.90;;;5.10;99.90;;;;;;5025512;28;20037;-62
2022/04/11 05:31:04;;;;;;;13.93;3.72;;;5.00;99.90;;;;;;5024602;28;20045;-62
2022/04/11 05:33:29;;;;;;;11.55;4.25;;;5.10;99.90;;;;;;5024017;28;20040;-60
2022/04/11 05:35:56;;;;;;;9.68;4.05;;;5.10;99.90;;;;;;5025103;28;20041;-62
2022/04/11 05:38:22;;;;;;;5.65;3.33;;;5.10;99.90;;;;;;5025525;28;20026;-61
2022/04/11 05:40:47;;;;;;;11.10;3.33;;;5.20;99.90;;;;;;5023035;28;20516;-60
2022/04/11 05:43:13;;;;;;;10.60;3.80;;;5.30;99.90;;;;;;5025052;28;20046;-62
2022/04/11 05:45:42;;;;;;;14.88;4.53;;;5.40;99.90;;;;;;5023863;28;20561;-62
2022/04/11 05:48:08;;;;;;;8.90;3.50;;;5.50;99.90;;;;;;5024379;28;20107;-62
2022/04/11 05:50:34;;;;;;;8.98;3.58;;;5.70;99.90;;;;;;5023454;28;20036;-61
2022/04/11 05:53:01;;;;;;;7.28;3.28;;;6.00;99.90;;;;;;5025031;28;20029;-61
2022/04/11 05:55:27;;;;;;;8.07;3.70;;;6.50;99.90;;;;;;5023534;28;20072;-61
2022/04/11 05:57:53;;;;;;;7.72;3.17;;;7.30;99.90;;;;;;5025643;28;20112;-62
2022/04/11 06:00:19;;;;;;;7.28;3.42;;;8.10;99.90;;;;;;5024303;28;20549;-62
2022/04/11 06:02:45;;;;;;;6.78;3.40;;;8.80;99.90;;;;;;5023710;28;20033;-60
2022/04/11 06:05:11;;;;;;;7.05;3.15;;;8.90;99.90;;;;;;5024134;28;20038;-62
2022/04/11 06:07:37;;;;;;;7.53;2.83;;;9.10;99.90;;;;;;5024629;28;20036;-61
2022/04/11 06:10:03;;;;;;;7.25;2.88;;;9.40;99.90;;;;;;5021512;28;20500;-61
2022/04/11 06:12:29;;;;;;;6.93;2.72;;;9.90;99.90;;;;;;5023867;28;20082;-60
2022/04/11 06:14:54;;;;;;;6.28;2.70;;;10.80;99.90;;;;;;5024207;28;20040;-64
2022/04/11 06:17:24;;;;;;;4.30;2.40;;;11.30;99.90;;;;;;5024656;28;20607;-61
2022/04/11 06:19:51;;;;;;;5.40;2.40;;;11.90;99.90;;;;;;5023306;28;20033;-61
2022/04/11 06:22:17;;;;;;;10.18;3.22;;;12.80;97.50;;;;;;5023804;28;20148;-61
2022/04/11 06:24:46;;;;;;;8.90;3.05;;;13.40;96.20;;;;;;5023936;28;21778;-60
2022/04/11 06:27:12;;;;;;;5.90;2.55;;;13.70;94.90;;;;;;5024071;28;20060;-60
2022/04/11 06:29:38;;;;;;;5.38;2.70;;;14.10;93.20;;;;;;5024271;28;20121;-61
2022/04/11 06:32:05;;;;;;;4.72;2.47;;;14.10;91.40;;;;;;5023668;28;20480;-61
2022/04/11 06:34:31;;;;;;;7.57;2.70;;;13.70;92.40;;;;;;5023662;28;20084;-61
2022/04/11 06:36:57;;;;;;;5.82;2.70;;;13.20;92.10;;;;;;5023619;28;20041;-60
2022/04/11 06:39:23;;;;;;;3.97;2.05;;;12.30;94.20;;;;;;5023968;28;20120;-61
2022/04/11 06:41:48;;;;;;;5.55;2.63;;;11.60;96.20;;;;;;5023363;28;20042;-61
2022/04/11 06:44:14;;;;;;;6.15;2.78;;;11.00;97.20;;;;;;5024391;28;20095;-61
2022/04/11 06:46:39;;;;;;;8.23;3.10;;;10.50;98.10;;;;;;5023393;28;20533;-61
2022/04/11 06:49:05;;;;;;;8.80;3.05;;;10.50;99.40;;;;;;5023635;28;20112;-62
2022/04/11 06:51:30;;;;;;;3.95;2.45;;;11.10;97.90;;;;;;5022497;28;20033;-62
2022/04/11 06:53:56;;;;;;;7.72;2.92;;;11.50;98.30;;;;;;5023990;28;20034;-62
2022/04/11 06:56:22;;;;;;;3.90;2.40;;;12.10;98.20;;;;;;5023583;28;20136;-62
2022/04/11 06:58:48;;;;;;;5.20;2.67;;;12.90;96.30;;;;;;5025825;28;20449;-62
2022/04/11 07:01:13;;;;;;;7.80;2.85;;;13.50;95.20;;;;;;5026871;28;20598;-61
2022/04/11 07:03:39;;;;;;;6.30;2.75;;;13.60;92.50;;;;;;5027518;28;20026;-61
2022/04/11 07:06:04;;;;;;;4.57;2.30;;;13.30;93.30;;;;;;5027636;28;20041;-60
2022/04/11 07:08:30;;;;;;;11.07;2.83;;;13.10;93.20;;;;;;5027223;28;20038;-61
2022/04/11 07:10:58;;;;;;;6.95;3.10;;;13.00;92.70;;;;;;5026845;28;20037;-61
2022/04/11 07:13:24;;;;;;;3.55;2.50;;;12.70;93.70;;;;;;5027116;28;20030;-62
2022/04/11 07:15:49;;;;;;;4.72;2.55;;;12.30;94.00;;;;;;5027178;28;20438;-60
2022/04/11 07:18:15;;;;;;;9.35;2.53;;;12.00;94.50;;;;;;5025736;28;20091;-61
2022/04/11 07:20:40;;;;;;;7.07;2.58;;;12.00;95.10;;;;;;5023438;28;20033;-62
2022/04/11 07:23:06;;;;;;;5.93;2.50;;;12.10;94.40;;;;;;5027320;28;20033;-62
2022/04/11 07:25:32;;;;;;;3.83;2.58;;;12.10;94.00;;;;;;5026487;28;20029;-61
2022/04/11 07:27:58;;;;;;;7.35;2.80;;;11.90;94.40;;;;;;5028505;28;20398;-61
2022/04/11 07:30:23;;;;;;;5.30;2.70;;;11.70;95.00;;;;;;5026044;28;20079;-64
2022/04/11 07:32:49;;;;;;;9.63;2.90;;;11.60;96.70;;;;;;5027370;28;20083;-60
2022/04/11 07:35:15;;;;;;;12.82;2.78;;;11.60;97.50;;;;;;5026909;28;20030;-62
2022/04/11 07:37:40;;;;;;;6.25;2.58;;;11.70;95.40;;;;;;5026513;28;20045;-62
2022/04/11 07:40:06;;;;;;;6.32;3.00;;;11.70;95.10;;;;;;5026245;28;20464;-61
2022/04/11 07:42:32;;;;;;;4.82;2.72;;;11.70;98.00;;;;;;5026563;28;20547;-61
2022/04/11 07:44:58;;;;;;;8.55;2.95;;;11.80;95.80;;;;;;5027090;28;20213;-63
2022/04/11 07:47:23;;;;;;;8.50;3.03;;;11.80;97.00;;;;;;5025855;28;20060;-63
2022/04/11 07:49:49;;;;;;;5.53;2.42;;;12.00;96.70;;;;;;5026495;28;20053;-61
2022/04/11 07:52:14;;;;;;;5.95;2.25;;;12.10;94.90;;;;;;5026697;28;20405;-61
2022/04/11 07:54:40;;;;;;;6.20;2.30;;;12.10;96.10;;;;;;5026011;28;20048;-62
2022/04/11 07:57:07;;;;;;;9.13;2.53;;;12.20;95.30;;;;;;5027628;28;20470;-61
2022/04/11 07:59:33;;;;;;;12.70;3.05;;;12.40;94.30;;;;;;5026676;28;20040;-61
2022/04/11 08:01:58;;;;;;;7.28;2.72;;;12.20;96.00;;;;;;5024137;28;20405;-59
2022/04/11 08:04:24;;;;;;;7.20;2.35;;;12.30;96.50;;;;;;5026132;28;20128;-60
2022/04/11 08:06:50;;;;;;;8.43;2.28;;;12.40;94.70;;;;;;5026700;28;20137;-61
2022/04/11 08:09:15;;;;;;;6.50;1.88;;;12.40;95.30;;;;;;5023058;28;20108;-61
2022/04/11 08:11:41;;;;;;;6.45;2.55;;;12.50;95.70;;;;;;5025149;28;20519;-61
2022/04/11 08:14:06;;;;;;;5.20;2.78;;;12.60;94.30;;;;;;5026583;28;20042;-62
2022/04/11 08:16:32;;;;;;;7.05;2.40;;;12.70;94.70;;;;;;5025594;28;20029;-62
2022/04/11 08:18:57;;;;;;;4.45;2.00;;;12.70;94.10;;;;;;5026047;28;20036;-61
2022/04/11 08:21:23;;;;;;;8.80;2.45;;;12.80;94.00;;;;;;5025821;28;20030;-62
2022/04/11 08:23:48;;;;;;;7.15;2.67;;;13.00;95.60;;;;;;5025845;28;20163;-62
2022/04/11 08:26:14;;;;;;;5.30;2.20;;;13.00;94.50;;;;;;5026330;28;20067;-62
2022/04/11 08:28:40;;;;;;;6.18;3.03;;;13.00;93.30;;;;;;5026967;28;20037;-62
2022/04/11 08:31:05;;;;;;;6.43;2.17;;;13.10;93.80;;;;;;5025061;28;20034;-61
2022/04/11 08:33:31;;;;;;;9.32;2.53;;;13.20;94.20;;;;;;5025710;28;20120;-61
2022/04/11 08:35:56;;;;;;;5.32;2.10;;;13.20;94.20;;;;;;5026240;28;20060;-62
2022/04/11 08:38:22;;;;;;;8.13;2.72;;;13.50;93.90;;;;;;5026442;28;20037;-62
2022/04/11 08:40:49;;;;;;;3.85;1.98;;;13.60;93.40;;;;;;5024592;28;20113;-63
2022/04/11 08:43:16;;;;;;;5.15;2.25;;;13.70;93.50;;;;;;5026155;28;20064;-61
2022/04/11 08:45:41;;;;;;;6.10;1.80;;;13.70;92.60;;;;;;5025527;28;20608;-61
2022/04/11 08:48:07;;;;;;;7.15;2.13;;;13.80;92.70;;;;;;5026003;28;20033;-60
2022/04/11 08:50:33;;;;;;;3.40;1.70;;;14.00;92.30;;;;;;5024455;28;20474;-61
2022/04/11 08:52:58;;;;;;;7.53;2.58;;;14.00;92.60;;;;;;5025658;28;20040;-61
2022/04/11 08:55:24;;;;;;;3.92;2.03;;;14.10;91.30;;;;;;5025044;28;20525;-62
2022/04/11 08:57:50;;;;;;;3.47;1.65;;;14.20;91.80;;;;;;5026502;28;20049;-62
2022/04/11 09:00:22;;;;;;;3.83;1.98;;;14.40;91.20;;;;;;5024897;28;20036;-62
2022/04/11 09:02:48;;;;;;;4.55;1.60;;;14.40;90.60;;;;;;5020365;28;20042;-63
2022/04/11 09:05:20;;;;;;;2.85;1.58;;;14.30;90.00;;;;;;5025229;28;20041;-61
2022/04/11 09:07:47;;;;;;;4.28;1.20;;;14.40;90.00;;;;;;5022088;28;20685;-60
2022/04/11 09:10:18;;;;;;;8.35;1.73;;;14.40;89.20;;;;;;5023439;28;20509;-61
2022/04/11 09:12:47;;;;;;;5.00;1.55;;;14.40;88.20;;;;;;5021700;28;20820;-61
2022/04/11 09:15:12;;;;;;;3.33;1.50;;;14.50;88.10;;;;;;5021507;28;20080;-61
2022/04/11 09:17:42;;;;;;;4.53;1.70;;;14.50;88.10;;;;;;5024670;28;20847;-63
2022/04/11 09:20:11;;;;;;;6.15;1.60;;;14.60;85.90;;;;;;5024100;28;20041;-60
2022/04/11 09:22:36;;;;;;;3.33;1.20;;;14.70;85.70;;;;;;5024078;28;20412;-61
2022/04/11 09:25:11;;;;;;;5.75;1.83;;;14.70;84.60;;;;;;5024967;28;20175;-62
2022/04/11 09:27:37;;;;;;;4.55;1.48;;;14.60;84.10;;;;;;5024414;28;20041;-61
2022/04/11 09:30:28;;;;;;;7.60;1.60;;;14.70;86.00;;;;;;5022621;28;20482;-62
2022/04/11 09:33:05;;;;;;;5.68;1.50;;;14.80;85.80;;;;;;5024335;28;20117;-61
2022/04/11 09:35:36;;;;;;;5.45;1.25;;;14.90;87.70;;;;;;5024378;28;20052;-61
2022/04/11 09:38:20;;;;;;;5.63;1.65;;;15.00;88.40;;;;;;5024300;28;20029;-61
2022/04/11 09:40:48;;;;;;;4.05;1.60;;;15.10;87.80;;;;;;5022142;28;20125;-62
2022/04/11 09:43:15;;;;;;;6.20;1.48;;;15.20;83.60;;;;;;5024885;28;20074;-61
2022/04/11 09:45:49;;;;;;;5.40;1.27;;;15.20;80.90;;;;;;5023786;28;20688;-61
2022/04/11 09:48:21;;;;;;;6.03;1.65;;;15.10;80.10;;;;;;5023530;28;20034;-62
2022/04/11 09:50:48;;;;;;;3.33;1.30;;;15.10;81.70;;;;;;5022765;28;20034;-61
2022/04/11 09:53:17;;;;;;;3.72;1.25;;;15.00;80.20;;;;;;5024259;28;20037;-61
2022/04/11 09:55:46;;;;;;;4.95;1.83;;;14.90;79.90;;;;;;5023758;28;20147;-61
2022/04/11 09:58:13;;;;;;;4.47;1.20;;;14.90;81.70;;;;;;5020273;28;20120;-60
2022/04/11 10:00:43;;;;;;;3.45;2.17;;;14.90;80.70;;;;;;5021971;28;20033;-63
2022/04/11 10:03:09;;;;;;;;;;;14.90;81.20;;;;;;5020935;28;20034;-62
2022/04/11 10:05:36;;;;;;;6.65;2.53;;;14.80;80.60;;;;;;5022732;28;20360;-61
2022/04/11 10:08:04;;;;;;;3.17;1.52;;;14.80;81.10;;;;;;5023140;28;20029;-61
2022/04/11 10:10:34;;;;;;;1.90;1.20;;;15.00;78.60;;;;;;5022466;28;20495;-61
2022/04/11 10:13:00;;;;;;;8.80;1.83;;;15.10;77.20;;;;;;5023335;28;20404;-62
2022/04/11 10:15:26;;;;;;;7.53;1.70;;;14.90;74.40;;;;;;5022293;28;20037;-62
2022/04/11 10:17:54;;;;;;;4.55;1.50;;;14.70;75.20;;;;;;5023375;28;20048;-61
2022/04/11 10:20:33;;;;;;;4.70;1.83;;;14.70;76.50;;;;;;5022613;28;20034;-61
2022/04/11 10:23:07;;;;;;;3.22;2.00;;;14.70;78.50;;;;;;5021373;28;20072;-61
2022/04/11 10:25:43;;;;;;;3.67;1.65;;;14.80;78.90;;;;;;5021150;28;20041;-61
2022/04/11 10:28:27;;;;;;;3.97;1.58;;;14.80;76.40;;;;;;5020403;28;20251;-61
2022/04/11 10:31:05;;;;;;;4.85;1.90;;;14.90;78.60;;;;;;5021839;28;20048;-64
2022/04/11 10:33:44;;;;;;;7.43;2.13;;;15.00;77.40;;;;;;5024129;28;20132;-62
2022/04/11 10:36:35;;;;;;;5.05;1.85;;;15.20;74.30;;;;;;5022911;28;20042;-61
2022/04/11 10:39:13;;;;;;;4.32;1.67;;;15.10;74.40;;;;;;5023657;28;20038;-62
2022/04/11 10:41:57;;;;;;;4.75;2.08;;;15.00;69.00;;;;;;5025316;28;20762;-62
2022/04/11 10:44:42;;;;;;;8.82;1.85;;;14.80;72.00;;;;;;5025180;28;20511;-62
2022/04/11 10:47:08;;;;;;;4.53;1.52;;;14.80;74.00;;;;;;5024725;28;20034;-61
2022/04/11 10:49:48;;;;;;;4.90;1.80;;;14.70;72.80;;;;;;5025864;28;20107;-62
2022/04/11 10:52:32;;;;;;;2.45;1.15;;;14.70;71.20;;;;;;5019548;28;20042;-62
2022/04/11 10:55:20;;;;;;;3.60;1.15;;;14.80;70.50;;;;;;5024962;28;20030;-63
2022/04/11 10:57:50;;;;;;;4.82;1.55;;;14.80;71.70;;;;;;5024867;28;20453;-62
2022/04/11 11:00:20;;;;;;;6.45;1.92;;;14.80;71.40;;;;;;5026029;28;20041;-63
2022/04/11 11:02:59;;;;;;;2.97;1.20;;;14.90;71.50;;;;;;5025840;28;20041;-61
2022/04/11 11:05:41;;;;;;;4.60;1.40;;;14.80;72.00;;;;;;5020329;28;20402;-64
2022/04/11 11:08:09;;;;;;;4.25;1.50;;;14.90;72.70;;;;;;5026339;28;20068;-61
2022/04/11 11:10:52;;;;;;;4.80;1.77;;;15.00;70.60;;;;;;5026566;28;20558;-61
2022/04/11 11:13:26;;;;;;;5.85;1.38;;;14.80;69.30;;;;;;5026314;28;20455;-63
2022/04/11 11:15:56;;;;;;;4.25;1.80;;;14.70;71.20;;;;;;5026112;28;20056;-61
2022/04/11 11:18:22;;;;;;;4.78;1.75;;;14.70;74.70;;;;;;5028610;28;20037;-61
2022/04/11 11:20:55;;;;;;;5.18;1.50;;;14.90;76.80;;;;;;5024746;28;20140;-61
2022/04/11 11:23:21;;;;;;;5.53;2.92;;;14.90;73.80;;;;;;5027808;28;20144;-62
2022/04/11 11:25:49;;;;;;;5.03;1.40;;;14.90;74.10;;;;;;5026822;28;20573;-61
2022/04/11 11:28:15;;;;;;;5.95;1.48;;;14.90;73.30;;;;;;5027135;28;20026;-62
2022/04/11 11:30:41;;;;;;;6.18;1.85;;;15.00;74.80;;;;;;5024743;28;20063;-61
2022/04/11 11:33:10;;;;;;;4.38;1.30;;;14.90;73.70;;;;;;5027082;28;20045;-62
2022/04/11 11:35:48;;;;;;;4.15;1.75;;;14.90;74.50;;;;;;5025184;28;20034;-62
2022/04/11 11:38:14;;;;;;;4.63;2.42;;;14.90;76.00;;;;;;5025564;28;20053;-61
2022/04/11 11:40:50;;;;;;;2.70;1.08;;;15.00;75.80;;;;;;5025653;28;20029;-63
2022/04/11 11:43:16;;;;;;;10.65;1.50;;;15.00;73.70;;;;;;5026785;28;20091;-61
2022/04/11 11:45:41;;;;;;;6.40;1.88;;;15.00;74.90;;;;;;5025539;28;20029;-61
2022/04/11 11:48:23;;;;;;;3.97;1.30;;;15.10;72.90;;;;;;5027393;28;20881;-61
2022/04/11 11:50:50;;;;;;;11.52;1.73;;;15.10;75.50;;;;;;5023395;28;20068;-62
2022/04/11 11:53:16;;;;;;;4.05;1.42;;;15.10;72.80;;;;;;5027093;28;20436;-61
2022/04/11 11:55:52;;;;;;;3.38;1.13;;;15.10;72.80;;;;;;5026261;28;20144;-61
2022/04/11 11:58:18;;;;;;;3.65;1.30;;;15.00;74.80;;;;;;5026379;28;20033;-61
2022/04/11 12:00:48;;;;;;;4.60;1.60;;;14.80;75.00;;;;;;5024071;28;20068;-61
2022/04/11 12:06:03;;;;;;;5.05;1.67;;;14.80;75.00;;;;;;5023191;28;20067;-61
2022/04/11 12:08:32;;;;;;;5.78;1.90;;;14.70;72.10;;;;;;5025818;28;20046;-63
2022/04/11 12:11:01;;;;;;;1.90;1.10;;;14.60;70.90;;;;;;5025533;28;20112;-61
2022/04/11 12:13:33;;;;;;;2.50;1.40;;;14.60;70.60;;;;;;5025542;28;20394;-61
2022/04/11 12:16:10;;;;;;;6.05;1.42;;;14.60;71.90;;;;;;5026320;28;20049;-61
2022/04/11 12:18:53;;;;;;;2.47;1.60;;;14.60;71.50;;;;;;5026327;28;20136;-61
2022/04/11 12:21:28;;;;;;;4.80;1.33;;;14.70;73.20;;;;;;5023429;28;20537;-62
2022/04/11 12:23:53;;;;;;;4.10;1.48;;;14.80;72.30;;;;;;5025721;28;20036;-62
2022/04/11 12:26:31;;;;;;;4.93;1.60;;;14.80;72.60;;;;;;5026093;28;20046;-61
2022/04/11 12:28:57;;;;;;;6.25;1.63;;;14.80;69.80;;;;;;5024409;28;20078;-61
2022/04/11 12:31:23;;;;;;;3.42;1.63;;;14.80;72.90;;;;;;5024188;28;20460;-61
2022/04/11 12:33:51;;;;;;;4.93;2.05;;;15.00;72.30;;;;;;5025337;28;20045;-63
2022/04/11 12:36:28;;;;;;;6.43;1.30;;;14.90;71.20;;;;;;5024442;28;20045;-61
2022/04/11 12:38:58;;;;;;;4.57;1.63;;;14.90;73.70;;;;;;5025760;28;20034;-61
2022/04/11 12:41:55;;;;;;;1.92;1.48;;;14.90;73.10;;;;;;5024699;28;20395;-61
2022/04/11 12:44:36;;;;;;;8.27;1.55;;;14.80;72.80;;;;;;5022957;28;20045;-64
2022/04/11 12:47:02;;;;;;;2.85;1.30;;;14.90;74.00;;;;;;5025568;28;20053;-62
2022/04/11 12:49:51;;;;;;;6.20;1.85;;;15.00;73.50;;;;;;5024977;28;20076;-61
2022/04/11 12:52:19;;;;;;;4.30;1.60;;;15.10;74.20;;;;;;5024194;28;20038;-60
2022/04/11 12:54:49;;;;;;;5.00;1.50;;;15.10;75.80;;;;;;5025392;28;20034;-61
2022/04/11 12:57:26;;;;;;;3.10;1.55;;;15.10;73.10;;;;;;5024423;28;20048;-62